Other Surface Observations
Issued by NWS Great Falls, MT

Home | Current Version | Previous Version | Text Only | Print | Product List | Glossary On
Versions: 1 2 3 4 5 6 7 8 9 10 11 12 13 14 15 16 17 18 19 20 21 22 23 24 25 26 27 28 29 30 31 32 33 34 35 36 37 38 39 40 41 42 43 44 45 46 47 48 49 50
161
SXUS55 KTFX 200808
OSOTFX

AREA AWOS OBSERVATIONS
NATIONAL WEATHER SERVICE GREAT FALLS MT
0207 AM MDT Sun Aug 20 2017

METAR K6S8 200755Z AUTO 01008KT 40SM 18/02 A3003 RMK A01 T01770016
METAR K7S0 200755Z AUTO  40SM 10/04 A3010 RMK A01 T01000044
METAR K7S0 200655Z AUTO  40SM 11/05 A3010 RMK A01 T01110050
METAR K7S1 200655Z AUTO 35001KT 15SM 18/M01 A3007 RMK A01 T01831011
METAR K97M 200655Z AUTO 04008KT 40SM 18/04 A3000 RMK A01 T01770038
METAR K9S5 200755Z AUTO 31000KT 10SM 17/01 A3007 RMK A01 T01720011
METAR KRPX 200655Z AUTO 36004KT 40SM 17/01 A2998 RMK A01 T01720011
METAR KS34 200655Z AUTO 31000KT 25SM 11/02 A3006 RMK A01 T01050022
METAR KTHM 200655Z AUTO 11000KT 40SM 12/04 A3010 RMK A01 T01220044



USA.gov is the U.S. government's official web portal to all federal, state and local government web resources and services.